createdAt,value
2018-03-15T00:00:45.916Z,32.17
2018-03-15T00:03:18.255Z,28.45
2018-03-15T00:05:44.504Z,35.58
2018-03-15T00:08:10.708Z,36.85
2018-03-15T00:10:36.958Z,32.28
2018-03-15T00:13:03.931Z,38.42
2018-03-15T00:15:30.185Z,38.78
2018-03-15T00:17:56.424Z,31.35
2018-03-15T00:20:22.639Z,36.08
2018-03-15T00:22:49.617Z,35.30
2018-03-15T00:25:15.841Z,44.55
2018-03-15T00:27:42.819Z,37.60
2018-03-15T00:30:09.034Z,37.45
2018-03-15T00:32:36.011Z,35.65
2018-03-15T00:35:02.251Z,37.22
2018-03-15T00:37:28.469Z,41.45
2018-03-15T00:39:55.447Z,36.63
2018-03-15T00:42:21.674Z,39.58
2018-03-15T00:44:48.650Z,38.17
2018-03-15T00:47:14.847Z,43.65
2018-03-15T00:49:41.080Z,54.55
2018-03-15T00:52:07.311Z,43.60
2018-03-15T00:54:33.566Z,51.47
2018-03-15T00:56:59.838Z,45.20
2018-03-15T00:59:26.041Z,44.35
2018-03-15T01:01:52.291Z,46.90
2018-03-15T01:04:18.498Z,43.67
2018-03-15T01:06:44.738Z,50.55
2018-03-15T01:09:10.972Z,43.65
2018-03-15T01:11:37.178Z,53.35
2018-03-15T01:14:04.141Z,64.62
2018-03-15T01:16:31.096Z,59.42
2018-03-15T01:18:58.450Z,67.53
2018-03-15T01:21:25.404Z,64.40
2018-03-15T01:23:52.350Z,60.40
2018-03-15T01:26:18.578Z,57.17
2018-03-15T01:28:44.796Z,72.25
2018-03-15T01:31:11.023Z,104.50
2018-03-15T01:33:37.230Z,84.62
2018-03-15T01:36:04.190Z,74.97
2018-03-15T01:38:31.120Z,174.98
2018-03-15T01:40:57.670Z,121.13
2018-03-15T01:43:23.880Z,56.25
2018-03-15T01:45:50.100Z,90.47
2018-03-15T01:48:16.328Z,57.50
2018-03-15T01:50:42.533Z,63.28
2018-03-15T01:53:08.763Z,57.60
2018-03-15T01:55:34.974Z,57.70
2018-03-15T01:58:01.214Z,77.05
2018-03-15T02:00:27.428Z,55.33
2018-03-15T02:02:53.654Z,90.82
2018-03-15T02:05:20.608Z,54.97
2018-03-15T02:07:47.552Z,58.67
2018-03-15T02:10:13.819Z,51.90
2018-03-15T02:12:40.767Z,58.75
2018-03-15T02:15:07.705Z,62.55
2018-03-15T02:17:33.953Z,57.67
2018-03-15T02:20:00.907Z,86.85
2018-03-15T02:22:27.396Z,77.95
2018-03-15T02:24:53.614Z,68.03
2018-03-15T02:27:20.571Z,70.03
2018-03-15T02:29:47.540Z,54.78
2018-03-15T02:32:13.748Z,58.38
2018-03-15T02:34:39.971Z,50.33
2018-03-15T02:37:06.194Z,52.90
2018-03-15T02:39:32.409Z,54.30
2018-03-15T02:41:58.614Z,61.05
2018-03-15T02:44:25.576Z,47.47
2018-03-15T02:46:51.799Z,55.40
2018-03-15T02:49:18.003Z,51.67
2018-03-15T02:51:44.236Z,57.95
2018-03-15T02:54:10.473Z,46.25
2018-03-15T02:56:36.705Z,54.55
2018-03-15T02:59:02.927Z,45.10
2018-03-15T03:01:29.895Z,44.97
2018-03-15T03:03:56.130Z,45.67
2018-03-15T03:06:22.335Z,42.90
2018-03-15T03:08:48.598Z,43.67
2018-03-15T03:11:15.553Z,42.65
2018-03-15T03:13:42.540Z,45.05
2018-03-15T03:16:08.753Z,41.47
2018-03-15T03:18:35.703Z,39.25
2018-03-15T03:21:02.683Z,43.00
2018-03-15T03:23:28.885Z,40.28
2018-03-15T03:25:55.164Z,38.97
2018-03-15T03:28:21.377Z,48.00
2018-03-15T03:30:47.602Z,51.42
2018-03-15T03:33:13.856Z,34.05
2018-03-15T03:35:40.064Z,41.35
2018-03-15T03:38:06.300Z,48.13
2018-03-15T03:40:32.507Z,44.85
2018-03-15T03:42:58.722Z,56.58
2018-03-15T03:45:25.669Z,46.40
2018-03-15T03:47:51.895Z,50.35
2018-03-15T03:50:18.111Z,52.17
2018-03-15T03:52:44.343Z,47.47
2018-03-15T03:55:10.562Z,83.28
2018-03-15T03:57:36.776Z,94.30
2018-03-15T04:00:03.047Z,114.93
2018-03-15T04:02:29.272Z,68.90
2018-03-15T04:04:56.253Z,148.77
2018-03-15T04:07:22.490Z,43.50
2018-03-15T04:09:48.726Z,38.30
2018-03-15T04:12:14.930Z,40.65
2018-03-15T04:14:41.164Z,56.65
2018-03-15T04:17:07.370Z,36.83
2018-03-15T04:19:33.590Z,47.53
2018-03-15T04:21:59.828Z,37.88
2018-03-15T04:24:26.045Z,48.70
2018-03-15T04:26:53.018Z,37.38
2018-03-15T04:29:19.983Z,42.08
2018-03-15T04:31:46.499Z,37.40
2018-03-15T04:34:12.726Z,38.25
2018-03-15T04:36:38.948Z,43.50
2018-03-15T04:39:05.180Z,36.20
2018-03-15T04:41:31.411Z,44.80
2018-03-15T04:43:57.636Z,40.22
2018-03-15T04:46:23.845Z,37.75
2018-03-15T04:48:50.814Z,41.03
2018-03-15T04:51:17.744Z,39.35
2018-03-15T04:53:43.965Z,39.28
2018-03-15T04:56:10.199Z,42.03
2018-03-15T04:58:36.412Z,38.97
2018-03-15T05:01:02.661Z,34.90
2018-03-15T05:03:28.876Z,37.95
2018-03-15T05:05:55.110Z,37.90
2018-03-15T05:08:22.078Z,41.37
2018-03-15T05:10:48.321Z,37.75
2018-03-15T05:13:14.543Z,41.50
2018-03-15T05:15:41.515Z,45.63
2018-03-15T05:18:07.753Z,50.05
2018-03-15T05:20:33.963Z,64.20
2018-03-15T05:23:00.213Z,48.03
2018-03-15T05:25:26.425Z,42.50
2018-03-15T05:27:52.637Z,28.55
2018-03-15T05:30:19.620Z,26.52
2018-03-15T05:32:45.824Z,23.45
2018-03-15T05:35:12.048Z,23.77
2018-03-15T05:37:38.999Z,23.30
2018-03-15T05:40:05.969Z,24.60
2018-03-15T05:42:32.923Z,19.42
2018-03-15T05:44:59.897Z,20.10
2018-03-15T05:47:26.101Z,22.62
2018-03-15T05:49:53.078Z,20.37
2018-03-15T05:52:20.042Z,21.40
2018-03-15T05:54:46.281Z,27.20
2018-03-15T05:57:12.519Z,26.60
2018-03-15T05:59:39.479Z,25.33
2018-03-15T06:02:06.465Z,21.60
2018-03-15T06:04:32.677Z,22.25
2018-03-15T06:06:58.897Z,21.92
2018-03-15T06:09:25.868Z,19.58
2018-03-15T06:11:52.823Z,20.30
2018-03-15T06:14:19.837Z,17.90
2018-03-15T06:16:46.046Z,20.05
2018-03-15T06:19:12.294Z,21.40
2018-03-15T06:21:38.535Z,21.48
2018-03-15T06:24:04.749Z,24.65
2018-03-15T06:26:31.740Z,26.87
2018-03-15T06:28:57.945Z,28.92
2018-03-15T06:31:24.173Z,33.00
2018-03-15T06:33:51.174Z,29.35
2018-03-15T06:36:17.409Z,33.90
2018-03-15T06:38:43.656Z,31.45
2018-03-15T06:41:09.895Z,35.08
2018-03-15T06:43:36.120Z,30.73
2018-03-15T06:46:02.368Z,33.38
2018-03-15T06:48:28.632Z,37.53
2018-03-15T06:50:54.896Z,30.40
2018-03-15T06:53:21.113Z,32.00
2018-03-15T06:55:47.314Z,31.37
2018-03-15T06:58:13.531Z,27.27
2018-03-15T07:00:40.494Z,32.17
2018-03-15T07:03:07.488Z,34.90
2018-03-15T07:05:33.708Z,27.45
2018-03-15T07:08:00.937Z,23.98
2018-03-15T07:10:27.162Z,24.05
2018-03-15T07:12:53.380Z,22.85
2018-03-15T07:15:19.602Z,26.00
2018-03-15T07:17:45.820Z,29.60
2018-03-15T07:20:12.793Z,20.30
2018-03-15T07:22:39.016Z,25.77
2018-03-15T07:25:06.016Z,27.05
2018-03-15T07:27:32.235Z,20.70
2018-03-15T07:29:58.483Z,26.20
2018-03-15T07:32:24.724Z,22.33
2018-03-15T07:34:50.939Z,28.65
2018-03-15T07:37:17.928Z,29.25
2018-03-15T07:39:44.150Z,22.00
2018-03-15T07:42:10.417Z,23.65
2018-03-15T07:44:36.689Z,21.00
2018-03-15T07:47:02.921Z,21.62
2018-03-15T07:49:29.167Z,21.45
2018-03-15T07:51:55.388Z,22.75
2018-03-15T07:54:21.640Z,21.45
2018-03-15T07:56:47.850Z,25.88
2018-03-15T07:59:14.089Z,18.52
2018-03-15T08:01:40.289Z,32.22
2018-03-15T08:04:07.275Z,23.00
2018-03-15T08:06:33.505Z,19.87
2018-03-15T08:09:00.473Z,22.60
2018-03-15T08:11:26.728Z,35.67
2018-03-15T08:13:52.959Z,23.77
2018-03-15T08:16:19.206Z,18.52
2018-03-15T08:18:45.409Z,22.70
2018-03-15T08:21:12.382Z,19.60
2018-03-15T08:23:39.370Z,23.38
2018-03-15T08:26:05.622Z,18.83
2018-03-15T08:28:31.845Z,20.08
2018-03-15T08:30:58.082Z,15.85
2018-03-15T08:33:24.625Z,16.65
2018-03-15T08:35:51.563Z,18.40
2018-03-15T08:38:18.519Z,15.50
2018-03-15T08:40:45.532Z,16.67
2018-03-15T08:43:11.727Z,16.37
2018-03-15T08:45:37.971Z,17.05
2018-03-15T08:48:04.210Z,14.73
2018-03-15T08:50:30.467Z,16.40
2018-03-15T08:52:56.736Z,14.68
2018-03-15T08:55:22.968Z,12.75
2018-03-15T08:57:49.213Z,20.62
2018-03-15T09:00:15.454Z,12.73
2018-03-15T09:02:41.704Z,14.10
2018-03-15T09:05:07.924Z,14.85
2018-03-15T09:07:34.122Z,13.77
2018-03-15T09:10:01.098Z,16.60
2018-03-15T09:12:27.317Z,15.48
2018-03-15T09:14:53.543Z,14.77
2018-03-15T09:17:19.754Z,16.33
2018-03-15T09:19:45.982Z,15.45
2018-03-15T09:22:12.208Z,12.80
2018-03-15T09:24:38.474Z,13.02
2018-03-15T09:27:04.702Z,12.93
2018-03-15T09:29:30.940Z,15.02
2018-03-15T09:31:57.938Z,14.35
2018-03-15T09:34:24.988Z,15.30
2018-03-15T09:36:51.162Z,14.43
2018-03-15T09:39:17.406Z,13.18
2018-03-15T09:41:43.662Z,15.20
2018-03-15T09:44:09.922Z,16.12
2018-03-15T09:46:36.172Z,16.85
2018-03-15T09:49:02.426Z,13.27
2018-03-15T09:51:28.676Z,17.37
2018-03-15T09:53:55.684Z,13.43
2018-03-15T09:56:21.958Z,11.90
2018-03-15T09:58:48.213Z,24.00
2018-03-15T10:01:14.461Z,13.45
2018-03-15T10:03:41.450Z,12.75
2018-03-15T10:06:07.699Z,14.00
2018-03-15T10:08:33.952Z,11.75
2018-03-15T10:11:00.211Z,15.38
2018-03-15T10:13:26.446Z,22.75
2018-03-15T10:15:52.693Z,16.00
2018-03-15T10:18:18.939Z,14.87
2018-03-15T10:20:45.203Z,13.90
2018-03-15T10:23:12.190Z,22.98
2018-03-15T10:25:38.723Z,11.60
2018-03-15T10:28:05.691Z,16.80
2018-03-15T10:30:31.930Z,17.40
2018-03-15T10:33:04.511Z,15.55
2018-03-15T10:35:31.492Z,18.98
2018-03-15T10:37:57.747Z,14.73
2018-03-15T10:40:23.997Z,12.23
2018-03-15T10:42:51.014Z,13.38
2018-03-15T10:45:17.283Z,15.27
2018-03-15T10:47:43.513Z,12.02
2018-03-15T10:50:09.801Z,13.00
2018-03-15T10:52:36.063Z,13.38
2018-03-15T10:55:03.050Z,15.18
2018-03-15T10:57:29.302Z,210.35
2018-03-15T10:59:55.585Z,93.40
2018-03-15T11:02:21.827Z,12.17
2018-03-15T11:04:54.247Z,14.33
2018-03-15T11:07:26.608Z,12.40
2018-03-15T11:09:53.648Z,13.73
2018-03-15T11:12:19.892Z,11.83
2018-03-15T11:14:46.242Z,12.13
2018-03-15T11:17:12.431Z,12.57
2018-03-15T11:19:39.038Z,9.20
2018-03-15T11:22:06.074Z,13.17
2018-03-15T11:24:32.306Z,12.53
2018-03-15T11:26:58.554Z,14.40
2018-03-15T11:29:24.804Z,16.80
2018-03-15T11:31:51.029Z,14.67
2018-03-15T11:34:17.264Z,15.20
2018-03-15T11:36:43.548Z,15.53
2018-03-15T11:39:10.524Z,14.63
2018-03-15T11:41:36.748Z,15.80
2018-03-15T11:44:03.740Z,12.80
2018-03-15T11:46:29.971Z,14.13
2018-03-15T11:48:56.489Z,14.50
2018-03-15T11:51:23.453Z,15.60
2018-03-15T11:53:50.524Z,13.03
2018-03-15T11:56:16.807Z,15.60
2018-03-15T11:58:43.030Z,14.33
2018-03-15T12:01:09.292Z,15.00
2018-03-15T12:03:35.546Z,13.73
2018-03-15T12:06:02.128Z,18.90
2018-03-15T12:08:29.101Z,15.20
2018-03-15T12:10:55.352Z,12.20
2018-03-15T12:13:21.628Z,13.13
2018-03-15T12:15:47.894Z,12.90
2018-03-15T12:18:14.914Z,14.40
2018-03-15T12:20:41.196Z,10.80
2018-03-15T12:23:07.470Z,15.37
2018-03-15T12:25:34.432Z,13.00
2018-03-15T12:28:00.680Z,11.67
2018-03-15T12:30:26.894Z,16.83
2018-03-15T12:32:53.118Z,13.60
2018-03-15T12:35:19.346Z,13.77
2018-03-15T12:37:45.580Z,11.10
2018-03-15T12:40:11.842Z,12.80
2018-03-15T12:42:38.049Z,13.93
2018-03-15T12:45:04.351Z,11.80
2018-03-15T12:47:31.300Z,15.70
2018-03-15T12:49:58.239Z,13.10
2018-03-15T12:52:24.494Z,15.10
2018-03-15T12:54:51.483Z,24.70
2018-03-15T12:57:17.734Z,11.07
2018-03-15T12:59:43.978Z,11.40
2018-03-15T13:02:10.249Z,12.07
2018-03-15T13:04:36.474Z,13.90
2018-03-15T13:07:03.436Z,13.30
2018-03-15T13:09:29.667Z,27.70
2018-03-15T13:11:55.933Z,11.77
2018-03-15T13:14:22.169Z,25.80
2018-03-15T13:16:48.380Z,15.17
2018-03-15T13:19:14.611Z,19.33
2018-03-15T13:21:40.827Z,19.67
2018-03-15T13:24:07.785Z,13.03
2018-03-15T13:26:34.756Z,18.20
2018-03-15T13:29:01.002Z,12.40
2018-03-15T13:31:27.232Z,15.93
2018-03-15T13:33:53.433Z,11.93
2018-03-15T13:36:19.667Z,12.50
2018-03-15T13:38:45.895Z,9.90
2018-03-15T13:41:12.125Z,9.23
2018-03-15T13:43:38.357Z,15.80
2018-03-15T13:46:04.566Z,13.10
2018-03-15T13:48:31.532Z,12.70
2018-03-15T13:50:57.808Z,12.00
2018-03-15T13:53:24.078Z,12.77
2018-03-15T13:55:50.318Z,11.97
2018-03-15T13:58:16.541Z,14.77
2018-03-15T14:00:42.780Z,15.40
2018-03-15T14:03:09.869Z,14.97
2018-03-15T14:05:36.886Z,15.60
2018-03-15T14:08:03.102Z,14.73
2018-03-15T14:10:29.334Z,11.77
2018-03-15T14:12:55.568Z,15.37
2018-03-15T14:15:21.812Z,15.30
2018-03-15T14:17:48.060Z,19.93
2018-03-15T14:20:14.282Z,15.40
2018-03-15T14:22:40.537Z,16.50
2018-03-15T14:25:06.741Z,18.57
2018-03-15T14:27:32.998Z,16.17
2018-03-15T14:29:59.972Z,26.13
2018-03-15T14:32:26.200Z,16.53
2018-03-15T14:34:53.199Z,16.27
2018-03-15T14:37:19.430Z,16.30
2018-03-15T14:39:45.671Z,18.20
2018-03-15T14:42:11.925Z,18.27
2018-03-15T14:44:38.181Z,15.43
2018-03-15T14:47:04.424Z,21.97
2018-03-15T14:49:30.631Z,16.83
2018-03-15T14:51:56.864Z,19.40
2018-03-15T14:54:23.129Z,16.73
2018-03-15T14:56:49.368Z,19.70
2018-03-15T14:59:15.631Z,21.73
2018-03-15T15:01:41.869Z,20.17
2018-03-15T15:04:08.121Z,21.23
2018-03-15T15:06:34.369Z,19.07
2018-03-15T15:09:00.657Z,18.00
2018-03-15T15:11:26.888Z,21.70
2018-03-15T15:13:53.099Z,24.57
2018-03-15T15:16:20.117Z,25.20
2018-03-15T15:18:46.342Z,32.60
2018-03-15T15:21:12.573Z,23.00
2018-03-15T15:23:38.837Z,22.67
2018-03-15T15:26:05.097Z,23.33
2018-03-15T15:28:31.329Z,25.60
2018-03-15T15:30:57.587Z,28.57
2018-03-15T15:33:23.820Z,26.37
2018-03-15T15:35:50.077Z,23.13
2018-03-15T15:38:16.312Z,22.67
2018-03-15T15:40:42.511Z,24.10
2018-03-15T15:43:08.749Z,24.77
2018-03-15T15:45:35.013Z,19.93
2018-03-15T15:48:01.270Z,23.80
2018-03-15T15:50:27.494Z,31.33
2018-03-15T15:52:54.453Z,26.63
2018-03-15T15:55:20.704Z,24.87
2018-03-15T15:57:46.927Z,35.10
2018-03-15T16:00:13.891Z,26.03
2018-03-15T16:02:40.123Z,27.02
2018-03-15T16:05:06.425Z,31.58
2018-03-15T16:07:32.669Z,29.55
2018-03-15T16:09:58.956Z,35.67
2018-03-15T16:12:25.206Z,40.67
2018-03-15T16:14:51.432Z,33.22
2018-03-15T16:17:17.712Z,31.83
2018-03-15T16:19:44.722Z,30.95
2018-03-15T16:22:10.992Z,33.00
2018-03-15T16:24:37.244Z,33.75
2018-03-15T16:27:04.236Z,30.95
2018-03-15T16:29:30.482Z,29.02
2018-03-15T16:31:56.727Z,31.20
2018-03-15T16:34:22.988Z,46.22
2018-03-15T16:36:49.216Z,34.92
2018-03-15T16:39:15.434Z,36.88
2018-03-15T16:41:41.678Z,33.75
2018-03-15T16:44:07.920Z,39.83
2018-03-15T16:46:34.174Z,34.20
2018-03-15T16:49:00.439Z,35.03
2018-03-15T16:51:26.686Z,37.95
2018-03-15T16:53:52.954Z,43.17
2018-03-15T16:56:19.176Z,38.40
2018-03-15T16:58:45.429Z,35.50
2018-03-15T17:01:12.403Z,40.17
2018-03-15T17:03:39.662Z,42.58
2018-03-15T17:06:06.664Z,37.10
2018-03-15T17:08:32.898Z,39.88
2018-03-15T17:10:59.183Z,37.53
2018-03-15T17:13:25.432Z,36.17
2018-03-15T17:15:51.685Z,39.20
2018-03-15T17:18:18.679Z,45.60
2018-03-15T17:20:44.953Z,41.35
2018-03-15T17:23:11.273Z,37.40
2018-03-15T17:25:37.530Z,38.85
2018-03-15T17:28:03.805Z,39.10
2018-03-15T17:30:30.781Z,41.92
2018-03-15T17:32:57.803Z,41.85
2018-03-15T17:35:24.047Z,41.90
2018-03-15T17:37:50.307Z,42.83
2018-03-15T17:40:17.282Z,39.38
2018-03-15T17:42:43.551Z,37.30
2018-03-15T17:45:09.817Z,46.65
2018-03-15T17:47:36.053Z,45.28
2018-03-15T17:50:02.375Z,44.28
2018-03-15T17:52:28.617Z,44.45
2018-03-15T17:54:55.143Z,40.15
2018-03-15T17:57:21.407Z,43.58
2018-03-15T17:59:47.667Z,43.03
2018-03-15T18:02:13.956Z,42.40
2018-03-15T18:04:40.213Z,43.38
2018-03-15T18:07:06.541Z,43.15
2018-03-15T18:09:32.814Z,41.37
2018-03-15T18:11:59.058Z,42.78
2018-03-15T18:14:25.350Z,39.08
2018-03-15T18:16:52.357Z,39.60
2018-03-15T18:19:18.675Z,43.08
2018-03-15T18:21:44.935Z,45.85
2018-03-15T18:24:11.179Z,44.35
2018-03-15T18:26:37.459Z,41.35
2018-03-15T18:29:03.718Z,44.55
2018-03-15T18:31:30.748Z,42.50
2018-03-15T18:33:57.039Z,43.25
2018-03-15T18:36:23.319Z,36.35
2018-03-15T18:38:49.579Z,43.00
2018-03-15T18:41:15.870Z,41.00
2018-03-15T18:43:42.115Z,41.15
2018-03-15T18:46:08.350Z,38.33
2018-03-15T18:48:34.652Z,41.05
2018-03-15T18:51:00.904Z,40.25
2018-03-15T18:53:27.973Z,38.58
2018-03-15T18:55:55.001Z,49.17
2018-03-15T18:58:21.276Z,47.33
2018-03-15T19:00:47.598Z,51.60
2018-03-15T19:03:14.646Z,40.35
2018-03-15T19:05:40.934Z,41.25
2018-03-15T19:08:07.227Z,43.10
2018-03-15T19:10:33.556Z,39.28
2018-03-15T19:12:59.923Z,43.70
2018-03-15T19:15:26.208Z,42.35
2018-03-15T19:17:52.535Z,40.67
2018-03-15T19:20:18.852Z,40.35
2018-03-15T19:22:45.938Z,44.25
2018-03-15T19:25:12.274Z,43.78
2018-03-15T19:27:39.328Z,45.33
2018-03-15T19:30:06.366Z,42.85
2018-03-15T19:32:32.686Z,41.90
2018-03-15T19:34:58.986Z,42.88
2018-03-15T19:37:25.268Z,48.25
2018-03-15T19:39:51.570Z,44.38
2018-03-15T19:42:17.856Z,44.67
2018-03-15T19:44:45.621Z,44.83
2018-03-15T19:47:11.903Z,41.92
2018-03-15T19:49:38.938Z,47.20
2018-03-15T19:52:06.735Z,43.70
2018-03-15T19:54:33.192Z,39.50
2018-03-15T19:57:00.254Z,39.15
2018-03-15T19:59:27.335Z,33.72
2018-03-15T20:01:53.648Z,42.30
2018-03-15T20:04:20.732Z,40.72
2018-03-15T20:06:48.235Z,38.00
2018-03-15T20:09:14.544Z,41.58
2018-03-15T20:11:47.741Z,40.70
2018-03-15T20:14:14.098Z,36.95
2018-03-15T20:16:40.391Z,44.60
2018-03-15T20:19:12.847Z,43.92
2018-03-15T20:21:39.206Z,40.65
2018-03-15T20:24:12.343Z,39.95
2018-03-15T20:26:39.414Z,40.10
2018-03-15T20:29:06.491Z,45.28
2018-03-15T20:31:32.819Z,48.55
2018-03-15T20:34:05.986Z,47.35
2018-03-15T20:36:32.311Z,42.00
2018-03-15T20:38:58.647Z,51.28
2018-03-15T20:41:26.935Z,46.10
2018-03-15T20:43:53.252Z,39.25
2018-03-15T20:46:39.436Z,42.08
2018-03-15T20:49:06.520Z,46.97
2018-03-15T20:51:32.807Z,44.30
2018-03-15T20:53:59.935Z,37.20
2018-03-15T20:56:26.267Z,44.83
2018-03-15T20:58:52.609Z,41.50
2018-03-15T21:01:18.897Z,43.97
2018-03-15T21:03:45.883Z,41.05
2018-03-15T21:06:12.148Z,46.85
2018-03-15T21:08:38.431Z,38.85
2018-03-15T21:11:04.716Z,45.15
2018-03-15T21:13:31.714Z,42.17
2018-03-15T21:15:57.994Z,44.20
2018-03-15T21:18:24.234Z,45.97
2018-03-15T21:20:50.507Z,43.80
2018-03-15T21:23:16.754Z,41.42
2018-03-15T21:25:43.015Z,43.55
2018-03-15T21:28:09.262Z,42.58
2018-03-15T21:30:35.508Z,40.63
2018-03-15T21:33:01.728Z,46.13
2018-03-15T21:35:27.972Z,44.83
2018-03-15T21:37:54.196Z,42.17
2018-03-15T21:40:20.436Z,43.78
2018-03-15T21:42:47.776Z,49.45
2018-03-15T21:45:14.008Z,44.58
2018-03-15T21:47:40.243Z,45.63
2018-03-15T21:50:06.490Z,42.22
2018-03-15T21:52:32.715Z,43.05
2018-03-15T21:55:02.128Z,42.30
2018-03-15T21:57:28.345Z,47.10
2018-03-15T21:59:54.564Z,48.95
2018-03-15T22:02:20.816Z,42.53
2018-03-15T22:04:47.061Z,46.20
2018-03-15T22:07:13.318Z,45.20
2018-03-15T22:09:39.536Z,48.30
2018-03-15T22:12:05.794Z,46.65
2018-03-15T22:14:32.034Z,49.95
2018-03-15T22:16:58.248Z,43.80
2018-03-15T22:19:24.861Z,42.97
2018-03-15T22:21:51.081Z,45.33
2018-03-15T22:24:17.322Z,47.50
2018-03-15T22:26:44.283Z,47.15
2018-03-15T22:29:10.576Z,47.40
2018-03-15T22:31:36.759Z,61.03
2018-03-15T22:34:02.989Z,72.65
2018-03-15T22:36:29.224Z,60.20
2018-03-15T22:38:55.431Z,54.90
2018-03-15T22:41:22.423Z,50.63
2018-03-15T22:43:48.679Z,44.33
2018-03-15T22:46:14.899Z,44.85
2018-03-15T22:48:41.121Z,52.50
2018-03-15T22:51:07.343Z,54.50
2018-03-15T22:53:34.389Z,54.03
2018-03-15T22:56:00.605Z,51.25
2018-03-15T22:58:26.852Z,56.55
2018-03-15T23:00:53.085Z,50.17
2018-03-15T23:03:19.303Z,50.58
2018-03-15T23:05:45.541Z,50.33
2018-03-15T23:08:11.772Z,48.58
2018-03-15T23:10:38.043Z,54.70
2018-03-15T23:13:04.261Z,53.22
2018-03-15T23:15:30.504Z,50.08
2018-03-15T23:17:56.725Z,54.33
2018-03-15T23:20:22.958Z,46.45
2018-03-15T23:22:49.168Z,49.92
2018-03-15T23:25:16.155Z,61.05
2018-03-15T23:27:42.392Z,60.15
2018-03-15T23:30:08.626Z,52.00
2018-03-15T23:32:35.608Z,57.22
2018-03-15T23:35:01.876Z,52.88
2018-03-15T23:37:28.145Z,58.17
2018-03-15T23:39:54.423Z,59.13
2018-03-15T23:42:20.628Z,53.55
2018-03-15T23:44:47.596Z,53.03
2018-03-15T23:47:14.539Z,51.92
2018-03-15T23:49:41.047Z,55.42
2018-03-15T23:52:07.266Z,53.30
2018-03-15T23:54:33.532Z,51.13
2018-03-15T23:56:59.744Z,55.03
2018-03-15T23:59:25.952Z,52.62
